Time;durP1;ratioP1;P1;durP2;ratioP2;P2;SDS_P1;SDS_P2;PMS_P1;PMS_P2;Temp;Humidity;BMP_temperature;BMP_pressure;BME280_temperature;BME280_humidity;BME280_pressure;Samples;Min_cycle;Max_cycle;Signal;HPM_P1;HPM_P2
2023/03/05 00:01:15;;;;;;;2.53;0.88;;;;;;;21.17;36.81;102187.13;5018539;28;20049;-73
2023/03/05 00:03:41;;;;;;;1.83;0.80;;;;;;;21.17;37.25;102181.69;5018854;28;20061;-73
2023/03/05 00:06:09;;;;;;;1.85;0.60;;;;;;;21.17;36.91;102179.81;5021697;28;20102;-73
2023/03/05 00:08:36;;;;;;;2.08;0.85;;;;;;;21.15;36.80;102175.50;5019537;28;20072;-73
2023/03/05 00:11:05;;;;;;;2.10;0.85;;;;;;;21.03;37.18;102177.53;5019651;28;20050;-73
2023/03/05 00:13:33;;;;;;;2.05;0.68;;;;;;;21.00;37.12;102175.09;5017848;28;20069;-73
2023/03/05 00:16:03;;;;;;;1.80;0.60;;;;;;;20.93;36.98;102174.78;5019388;28;20423;-73
2023/03/05 00:18:29;;;;;;;2.40;0.80;;;;;;;20.99;37.28;102172.50;5018837;28;20141;-73
2023/03/05 00:20:56;;;;;;;2.25;0.75;;;;;;;20.98;37.14;102171.63;5018629;28;20051;-73
2023/03/05 00:23:22;;;;;;;1.35;0.70;;;;;;;20.97;36.93;102169.91;5017472;28;20041;-73
2023/03/05 00:25:49;;;;;;;2.13;0.63;;;;;;;21.01;36.77;102171.34;5020422;28;20041;-74
2023/03/05 00:28:16;;;;;;;1.50;0.93;;;;;;;21.04;36.91;102164.72;5021604;28;20041;-73
2023/03/05 00:30:42;;;;;;;1.73;0.82;;;;;;;21.04;37.30;102162.84;5020970;28;20045;-73
2023/03/05 00:33:11;;;;;;;1.95;0.60;;;;;;;21.07;36.85;102168.03;5019904;28;20508;-73
2023/03/05 00:35:43;;;;;;;1.85;1.38;;;;;;;21.06;36.59;102158.13;5018645;28;20147;-73
2023/03/05 00:38:11;;;;;;;1.50;0.90;;;;;;;21.05;36.63;102164.59;5005174;28;20050;-73
2023/03/05 00:40:39;;;;;;;1.75;0.75;;;;;;;21.06;37.02;102160.84;5021681;28;20151;-73
2023/03/05 00:43:07;;;;;;;2.08;0.80;;;;;;;21.10;36.79;102165.00;5021101;28;20045;-73
2023/03/05 00:45:34;;;;;;;2.05;0.70;;;;;;;21.09;36.92;102157.81;5019013;28;20046;-73
2023/03/05 00:48:02;;;;;;;1.92;0.90;;;;;;;21.06;36.59;102151.78;5017625;28;20669;-73
2023/03/05 00:50:28;;;;;;;2.60;1.00;;;;;;;21.06;36.70;102152.66;5017028;28;20049;-73
2023/03/05 00:52:55;;;;;;;1.88;0.73;;;;;;;21.09;36.75;102148.75;5018048;28;20505;-73
2023/03/05 00:55:21;;;;;;;1.38;0.70;;;;;;;21.09;36.35;102135.09;5016944;28;20042;-73
2023/03/05 00:57:48;;;;;;;1.63;0.70;;;;;;;21.10;36.83;102137.69;4994742;28;20049;-73
2023/03/05 01:00:16;;;;;;;1.60;0.80;;;;;;;21.09;36.30;102137.84;5019505;28;20056;-73
2023/03/05 01:02:42;;;;;;;2.08;0.70;;;;;;;21.06;36.73;102133.53;5015129;28;20049;-73
2023/03/05 01:05:14;;;;;;;1.92;0.70;;;;;;;21.03;36.32;102132.97;5018903;28;20025;-73
2023/03/05 01:07:40;;;;;;;1.85;0.80;;;;;;;20.93;36.64;102132.97;5015974;28;20128;-73
2023/03/05 01:10:08;;;;;;;1.92;0.80;;;;;;;20.86;36.31;102126.38;5019693;28;20046;-73
2023/03/05 01:12:36;;;;;;;5.03;0.98;;;;;;;20.81;36.45;102123.22;5009721;28;20137;-73
2023/03/05 01:15:04;;;;;;;1.45;0.60;;;;;;;20.91;36.62;102119.47;5015897;28;20050;-73
2023/03/05 01:17:31;;;;;;;1.38;0.73;;;;;;;20.92;36.53;102120.31;5020383;28;20057;-73
2023/03/05 01:19:57;;;;;;;2.17;0.90;;;;;;;20.91;36.29;102114.00;5017907;28;20386;-73
2023/03/05 01:22:24;;;;;;;2.85;0.80;;;;;;;20.97;36.45;102114.44;5028214;28;20049;-73
2023/03/05 01:24:50;;;;;;;1.83;1.10;;;;;;;21.00;36.68;102114.13;5022684;28;20034;-73
2023/03/05 01:27:17;;;;;;;1.85;0.93;;;;;;;21.06;36.29;102111.69;5019454;28;20524;-73
2023/03/05 01:29:43;;;;;;;2.00;0.65;;;;;;;21.06;36.44;102108.09;5022621;28;20046;-73
2023/03/05 01:32:10;;;;;;;1.95;0.80;;;;;;;21.04;36.44;102108.22;5023507;28;20504;-73
2023/03/05 01:34:37;;;;;;;1.77;0.85;;;;;;;21.05;36.38;102111.81;5022065;28;20041;-73
2023/03/05 01:37:04;;;;;;;1.40;0.63;;;;;;;21.07;36.08;102101.63;5018605;28;20084;-73
2023/03/05 01:39:30;;;;;;;1.48;0.80;;;;;;;21.08;36.36;102106.06;5021876;28;20054;-73
2023/03/05 01:41:57;;;;;;;2.85;0.75;;;;;;;21.08;36.02;102100.59;5021826;28;20493;-73
2023/03/05 01:44:29;;;;;;;1.77;0.80;;;;;;;21.06;36.13;102102.63;5022389;28;20042;-73
2023/03/05 01:46:55;;;;;;;1.75;0.70;;;;;;;21.05;35.99;102089.97;5020586;28;20037;-73
2023/03/05 01:49:37;;;;;;;2.45;0.90;;;;;;;21.05;36.22;102085.38;5023638;28;20107;-73
2023/03/05 01:52:16;;;;;;;2.08;0.60;;;;;;;21.07;36.28;102080.63;5020998;28;20132;-73
2023/03/05 01:54:49;;;;;;;1.45;0.60;;;;;;;21.06;36.31;102078.91;5020405;28;20045;-73
2023/03/05 01:57:23;;;;;;;1.65;0.80;;;;;;;21.00;36.14;102074.03;5020388;28;20618;-73
2023/03/05 01:59:55;;;;;;;2.22;0.80;;;;;;;20.94;35.86;102067.28;5026436;28;20370;-73
2023/03/05 02:02:21;;;;;;;2.42;0.85;;;;;;;20.80;36.23;102066.84;5021556;28;20050;-73
2023/03/05 02:05:02;;;;;;;1.77;0.80;;;;;;;20.73;36.23;102062.97;5019255;28;20133;-73
2023/03/05 02:07:30;;;;;;;1.73;0.65;;;;;;;20.64;36.22;102053.78;5024835;28;20088;-73
2023/03/05 02:09:57;;;;;;;2.25;1.00;;;;;;;20.59;35.91;102056.09;5021449;28;20034;-73
2023/03/05 02:12:23;;;;;;;1.63;0.70;;;;;;;20.60;36.33;102055.09;5021115;28;20057;-73
2023/03/05 02:14:57;;;;;;;2.08;0.90;;;;;;;20.71;36.46;102048.59;5021221;28;20053;-73
2023/03/05 02:17:26;;;;;;;;;;;;;;;20.79;36.30;102038.69;5015242;28;20073;-73
2023/03/05 02:19:55;;;;;;;1.40;0.70;;;;;;;20.86;36.14;102042.56;5019645;28;20047;-73
2023/03/05 02:22:23;;;;;;;1.70;0.85;;;;;;;20.93;36.04;102032.78;5023210;28;20053;-73
2023/03/05 02:24:50;;;;;;;1.60;0.95;;;;;;;20.98;35.95;102034.22;5019178;28;20042;-73
2023/03/05 02:27:21;;;;;;;1.58;0.60;;;;;;;20.97;35.70;102027.03;5020634;28;20532;-73
2023/03/05 02:29:49;;;;;;;1.40;0.70;;;;;;;20.96;36.08;102025.31;5019044;28;20065;-73
2023/03/05 02:32:15;;;;;;;1.15;0.65;;;;;;;20.94;35.78;102018.13;5019741;28;20049;-73
2023/03/05 02:34:42;;;;;;;1.25;0.70;;;;;;;20.97;35.95;102016.97;5026512;28;20592;-73
2023/03/05 02:37:09;;;;;;;1.83;0.60;;;;;;;20.98;35.68;102017.81;5019533;28;20068;-72
2023/03/05 02:39:37;;;;;;;1.55;0.60;;;;;;;20.97;36.00;102007.91;5020623;28;20096;-73
2023/03/05 02:42:03;;;;;;;2.22;0.80;;;;;;;20.96;35.92;102008.91;5019746;28;20057;-73
2023/03/05 02:44:30;;;;;;;2.35;0.70;;;;;;;20.96;36.14;101995.28;5027187;28;20099;-73
2023/03/05 02:46:56;;;;;;;1.23;0.60;;;;;;;20.96;35.94;101990.66;5018889;28;20480;-73
2023/03/05 02:49:23;;;;;;;1.50;0.70;;;;;;;20.97;35.82;101991.53;5020276;28;20054;-72
2023/03/05 02:51:50;;;;;;;1.52;0.55;;;;;;;20.89;35.56;101995.00;5018617;28;20107;-73
2023/03/05 02:54:17;;;;;;;2.13;0.80;;;;;;;20.74;36.13;101985.53;5017158;28;20053;-73
2023/03/05 02:56:43;;;;;;;1.27;0.80;;;;;;;20.66;35.89;101993.59;5020609;28;21291;-73
2023/03/05 02:59:10;;;;;;;2.45;0.82;;;;;;;20.54;35.68;101985.56;5020202;28;20129;-73
2023/03/05 03:01:37;;;;;;;2.13;0.60;;;;;;;20.48;36.23;101977.09;5019126;28;20042;-73
2023/03/05 03:04:03;;;;;;;1.77;0.60;;;;;;;20.45;36.18;101972.81;5017494;28;20046;-73
2023/03/05 03:06:30;;;;;;;1.90;0.70;;;;;;;20.52;36.25;101973.94;5017556;28;20045;-73
2023/03/05 03:08:56;;;;;;;2.33;0.75;;;;;;;20.58;35.97;101973.34;5019890;28;20625;-73
2023/03/05 03:11:23;;;;;;;1.48;0.73;;;;;;;20.69;36.40;101969.59;5023069;28;20060;-73
2023/03/05 03:13:49;;;;;;;1.50;0.70;;;;;;;20.78;35.89;101971.44;5018813;28;20038;-73
2023/03/05 03:16:16;;;;;;;2.17;0.60;;;;;;;20.86;35.79;101970.72;5019741;28;20080;-73
2023/03/05 03:18:46;;;;;;;2.05;0.80;;;;;;;20.86;35.64;101960.66;5018198;28;20050;-73
2023/03/05 03:21:21;;;;;;;1.67;0.70;;;;;;;20.83;35.70;101954.63;5020734;28;20485;-73
2023/03/05 03:23:48;;;;;;;1.98;0.77;;;;;;;20.82;35.96;101959.25;5022489;28;20041;-73
2023/03/05 03:26:16;;;;;;;2.30;0.90;;;;;;;20.87;35.82;101945.13;5020980;28;20042;-73
2023/03/05 03:28:42;;;;;;;1.42;0.80;;;;;;;20.84;35.67;101934.50;5025195;28;20050;-73
2023/03/05 03:31:09;;;;;;;1.65;0.60;;;;;;;20.86;35.93;101948.88;5020677;28;20038;-73
2023/03/05 03:33:35;;;;;;;1.52;0.85;;;;;;;20.84;35.21;101957.22;5022412;28;20037;-73
2023/03/05 03:36:03;;;;;;;1.33;0.57;;;;;;;20.82;35.65;101952.91;5021697;28;20694;-73
2023/03/05 03:38:30;;;;;;;1.92;0.65;;;;;;;20.76;35.50;101934.38;5018743;28;20126;-77
2023/03/05 03:40:57;;;;;;;2.10;0.60;;;;;;;20.74;35.79;101939.97;5021848;28;20045;-73
2023/03/05 03:43:23;;;;;;;1.83;0.70;;;;;;;20.75;35.87;101940.84;5018406;28;20049;-73
2023/03/05 03:45:50;;;;;;;1.60;0.77;;;;;;;20.65;35.70;101934.56;5015186;28;20107;-73
2023/03/05 03:48:16;;;;;;;1.77;0.95;;;;;;;20.57;35.46;101933.41;5017873;28;20041;-73
2023/03/05 03:50:43;;;;;;;2.58;0.70;;;;;;;20.45;35.62;101934.59;5019575;28;20060;-73
2023/03/05 03:53:13;;;;;;;1.63;0.50;;;;;;;20.46;35.74;101930.00;5014302;28;20088;-73
2023/03/05 03:55:45;;;;;;;1.17;0.60;;;;;;;20.46;35.84;101930.84;5016960;28;20406;-73
2023/03/05 03:58:12;;;;;;;1.33;0.60;;;;;;;20.43;35.92;101933.03;5005367;28;20091;-73
2023/03/05 04:00:40;;;;;;;1.48;0.60;;;;;;;20.42;35.79;101929.44;5018559;28;20084;-73
2023/03/05 04:03:07;;;;;;;1.77;0.60;;;;;;;20.57;36.30;101933.41;5020689;28;20145;-73
2023/03/05 04:05:34;;;;;;;2.05;0.80;;;;;;;20.67;35.98;101929.81;5022807;28;20402;-73
2023/03/05 04:08:00;;;;;;;1.48;0.70;;;;;;;20.68;35.74;101915.13;5019073;28;20054;-73
2023/03/05 04:10:26;;;;;;;1.20;0.60;;;;;;;20.72;35.43;101917.44;5019600;28;20042;-73
2023/03/05 04:12:53;;;;;;;1.88;0.85;;;;;;;20.71;35.37;101912.13;5015644;28;20546;-73
2023/03/05 04:15:20;;;;;;;0.98;0.47;;;;;;;20.75;35.59;101903.47;5017966;28;20032;-73
2023/03/05 04:17:46;;;;;;;1.15;0.50;;;;;;;20.76;36.27;101907.06;5017636;28;20465;-73
2023/03/05 04:20:13;;;;;;;2.10;0.73;;;;;;;20.80;35.89;101903.88;5021030;28;20078;-73
2023/03/05 04:22:39;;;;;;;2.08;0.60;;;;;;;20.83;35.50;101900.03;5019820;28;20860;-73
2023/03/05 04:25:07;;;;;;;2.15;0.80;;;;;;;20.86;35.75;101899.72;5015785;28;20042;-73
2023/03/05 04:27:34;;;;;;;1.42;0.80;;;;;;;20.87;35.44;101896.84;5018192;28;20499;-73
2023/03/05 04:30:01;;;;;;;1.73;0.60;;;;;;;20.85;35.54;101890.69;5019985;28;20052;-73
2023/03/05 04:32:28;;;;;;;1.33;0.60;;;;;;;20.84;35.33;101897.16;5019272;28;20052;-73
2023/03/05 04:34:56;;;;;;;1.67;0.50;;;;;;;20.67;35.17;101884.25;5019518;28;20084;-73
2023/03/05 04:37:24;;;;;;;1.83;0.60;;;;;;;20.54;35.21;101892.78;5014224;28;20045;-73
2023/03/05 04:39:51;;;;;;;1.92;0.60;;;;;;;20.52;35.37;101888.47;5015706;28;20056;-73
2023/03/05 04:42:19;;;;;;;1.10;0.60;;;;;;;20.44;35.44;101889.22;5018823;28;20056;-73
2023/03/05 04:44:48;;;;;;;1.27;0.73;;;;;;;20.42;35.57;101888.50;5021611;28;20037;-73
2023/03/05 04:47:15;;;;;;;1.80;0.60;;;;;;;20.36;35.56;101883.59;5019134;28;20048;-73
2023/03/05 04:49:42;;;;;;;3.13;0.70;;;;;;;20.38;35.69;101889.78;5022883;28;20076;-73
2023/03/05 04:52:10;;;;;;;0.93;0.70;;;;;;;20.42;35.50;101893.09;5016787;28;20140;-73
2023/03/05 04:54:37;;;;;;;2.50;0.80;;;;;;;20.40;35.63;101882.34;5018153;28;20041;-73
2023/03/05 04:57:04;;;;;;;1.90;0.60;;;;;;;20.46;36.04;101884.47;5025248;28;20052;-73
2023/03/05 04:59:31;;;;;;;1.40;0.57;;;;;;;20.51;35.46;101873.09;5017583;28;20528;-73
2023/03/05 05:01:58;;;;;;;1.40;0.65;;;;;;;20.53;35.84;101882.00;5019149;28;20049;-73
2023/03/05 05:04:24;;;;;;;1.05;0.50;;;;;;;20.59;35.60;101875.97;5021792;28;20125;-73
2023/03/05 05:06:54;;;;;;;1.90;0.95;;;;;;;20.63;35.64;101866.47;5022716;28;20042;-73
2023/03/05 05:09:21;;;;;;;1.65;0.60;;;;;;;20.63;35.76;101864.59;5021579;28;20214;-73
2023/03/05 05:11:48;;;;;;;1.27;0.70;;;;;;;20.66;35.36;101870.75;5021647;28;20048;-73
2023/03/05 05:14:15;;;;;;;1.27;0.60;;;;;;;20.67;35.46;101862.41;5026641;28;20045;-73
2023/03/05 05:16:41;;;;;;;1.52;0.50;;;;;;;20.69;35.72;101865.84;5001674;28;20228;-73
2023/03/05 05:19:08;;;;;;;2.35;0.68;;;;;;;20.64;35.47;101860.00;5020766;28;20100;-73
2023/03/05 05:21:35;;;;;;;1.05;0.70;;;;;;;20.58;35.39;101855.13;5021665;28;20095;-73
2023/03/05 05:24:01;;;;;;;1.70;0.68;;;;;;;20.48;35.07;101846.97;5020851;28;20041;-73
2023/03/05 05:26:28;;;;;;;1.88;0.77;;;;;;;20.49;35.71;101853.31;5018802;28;20065;-73
2023/03/05 05:28:54;;;;;;;1.60;0.70;;;;;;;20.42;35.60;101847.56;5023438;28;20740;-73
2023/03/05 05:31:20;;;;;;;0.73;0.40;;;;;;;20.40;35.45;101846.00;5021115;28;20050;-73
2023/03/05 05:33:47;;;;;;;1.98;0.50;;;;;;;20.34;35.73;101841.97;5021608;28;20049;-73
2023/03/05 05:36:18;;;;;;;0.90;0.40;;;;;;;20.34;35.64;101844.69;5024800;28;20494;-73
2023/03/05 05:38:44;;;;;;;1.10;0.63;;;;;;;20.38;35.66;101843.41;5020064;28;20050;-73
2023/03/05 05:41:14;;;;;;;1.25;0.70;;;;;;;20.39;35.31;101836.97;5022158;28;20033;-72
2023/03/05 05:43:41;;;;;;;2.13;0.95;;;;;;;20.50;35.32;101838.66;5019813;28;20049;-73
2023/03/05 05:46:11;;;;;;;1.20;0.65;;;;;;;20.53;35.27;101839.19;5020860;28;20050;-73
2023/03/05 05:48:38;;;;;;;1.10;0.50;;;;;;;20.40;35.12;101843.28;5019938;28;20056;-73
2023/03/05 05:51:06;;;;;;;1.98;0.63;;;;;;;20.36;35.29;101833.63;5027220;28;20049;-73
2023/03/05 05:53:33;;;;;;;1.23;0.60;;;;;;;20.37;35.67;101827.16;5021466;28;20390;-72
2023/03/05 05:56:02;;;;;;;1.73;0.70;;;;;;;20.45;35.51;101827.31;5020052;28;20493;-72
2023/03/05 05:58:28;;;;;;;1.52;0.70;;;;;;;20.39;35.30;101828.78;5020183;28;20051;-73
2023/03/05 06:00:55;;;;;;;1.67;0.50;;;;;;;20.49;35.35;101826.88;5020820;28;20045;-72
2023/03/05 06:03:21;;;;;;;0.93;0.38;;;;;;;20.58;35.60;101830.56;5020895;28;20042;-73
2023/03/05 06:05:48;;;;;;;3.28;1.00;;;;;;;20.61;35.58;101827.53;5020367;28;20042;-73
2023/03/05 06:08:15;;;;;;;1.27;0.50;;;;;;;20.73;35.57;101823.59;5020402;28;20042;-73
2023/03/05 06:10:41;;;;;;;1.42;0.60;;;;;;;20.82;35.29;101814.53;5019138;28;20095;-73
2023/03/05 06:13:08;;;;;;;2.45;0.68;;;;;;;20.89;35.44;101815.63;5022903;28;20429;-73
2023/03/05 06:15:34;;;;;;;1.33;0.50;;;;;;;20.94;35.30;101807.00;5022933;28;20096;-73
2023/03/05 06:18:01;;;;;;;0.70;0.40;;;;;;;20.99;35.09;101814.72;5016554;28;20096;-73
2023/03/05 06:20:28;;;;;;;1.05;0.35;;;;;;;20.99;34.79;101807.38;5021836;28;20413;-73
2023/03/05 06:22:54;;;;;;;2.30;0.88;;;;;;;21.00;35.18;101810.97;5019424;28;20512;-72
2023/03/05 06:25:21;;;;;;;2.53;0.57;;;;;;;21.00;34.72;101809.09;5017355;28;20045;-72
2023/03/05 06:27:47;;;;;;;2.38;0.60;;;;;;;21.01;35.01;101812.69;5019228;28;20670;-72
2023/03/05 06:30:14;;;;;;;2.15;0.75;;;;;;;20.99;35.17;101812.84;5021295;28;20046;-73
2023/03/05 06:32:41;;;;;;;2.97;0.60;;;;;;;21.00;34.89;101819.16;5022484;28;20382;-72
2023/03/05 06:35:07;;;;;;;2.10;0.50;;;;;;;20.88;34.58;101813.06;5021282;28;20041;-74
2023/03/05 06:37:34;;;;;;;2.40;0.60;;;;;;;20.83;34.94;101810.78;5015700;28;20390;-73
2023/03/05 06:40:00;;;;;;;1.13;0.60;;;;;;;20.85;35.09;101806.03;5013286;28;20391;-73
2023/03/05 06:42:27;;;;;;;1.27;0.70;;;;;;;20.88;35.14;101813.06;5018493;28;20448;-74
2023/03/05 06:44:53;;;;;;;1.05;0.70;;;;;;;20.90;35.36;101809.16;5013727;28;20042;-74
2023/03/05 06:47:20;;;;;;;1.60;0.73;;;;;;;20.92;35.15;101809.88;5019103;28;20095;-73
2023/03/05 06:49:46;;;;;;;7.00;1.02;;;;;;;20.89;34.99;101812.91;5021979;28;20042;-73
2023/03/05 06:52:13;;;;;;;0.73;0.60;;;;;;;20.87;35.14;101805.88;5016661;28;20104;-72
2023/03/05 06:54:39;;;;;;;2.92;0.80;;;;;;;20.82;35.02;101816.41;5020598;28;20432;-71
2023/03/05 06:57:06;;;;;;;5.65;0.77;;;;;;;20.74;35.32;101814.41;5018058;28;20044;-72
2023/03/05 06:59:32;;;;;;;1.65;0.70;;;;;;;20.80;35.65;101813.78;5017927;28;20050;-71
2023/03/05 07:01:59;;;;;;;2.65;0.68;;;;;;;20.84;35.56;101814.38;5017450;28;20465;-72
2023/03/05 07:04:26;;;;;;;1.50;0.57;;;;;;;20.89;35.67;101818.38;5023023;28;20037;-71
2023/03/05 07:06:52;;;;;;;3.30;0.75;;;;;;;20.78;35.21;101814.97;5021779;28;20053;-72
2023/03/05 07:09:19;;;;;;;1.88;0.60;;;;;;;20.80;35.46;101815.66;5028408;28;20053;-73
2023/03/05 07:11:45;;;;;;;3.10;0.55;;;;;;;20.78;35.54;101807.63;5029998;28;20101;-72
2023/03/05 07:14:12;;;;;;;4.38;0.88;;;;;;;20.72;35.41;101810.97;5022930;28;20037;-74
2023/03/05 07:16:38;;;;;;;3.70;0.68;;;;;;;20.64;35.97;101805.41;5017477;28;20414;-71
2023/03/05 07:19:06;;;;;;;2.67;0.88;;;;;;;20.62;35.41;101796.50;5025205;28;20045;-71
2023/03/05 07:21:33;;;;;;;3.17;1.05;;;;;;;20.72;36.04;101805.50;5011597;28;20057;-70
2023/03/05 07:24:04;;;;;;;3.58;1.17;;;;;;;20.78;36.48;101801.31;5009448;28;20461;-71
2023/03/05 07:26:32;;;;;;;5.13;0.90;;;;;;;20.85;36.24;101806.03;5016124;28;20068;-71
2023/03/05 07:29:00;;;;;;;2.88;0.93;;;;;;;20.88;35.79;101803.00;5012141;28;20575;-71
2023/03/05 07:31:29;;;;;;;4.03;0.85;;;;;;;20.93;35.84;101802.53;5024107;28;20432;-71
2023/03/05 07:33:58;;;;;;;4.57;1.38;;;;;;;20.94;35.54;101798.78;5017583;28;20399;-71
2023/03/05 07:36:25;;;;;;;6.25;1.45;;;;;;;20.94;35.52;101799.66;5020337;28;20046;-70
2023/03/05 07:38:52;;;;;;;1.92;0.93;;;;;;;20.96;35.40;101802.22;5010314;28;20050;-72
2023/03/05 07:41:22;;;;;;;3.40;1.33;;;;;;;20.70;34.65;101801.19;5009108;28;20101;-71
2023/03/05 07:43:52;;;;;;;3.53;1.20;;;;;;;20.67;35.37;101796.91;5013753;28;20096;-73
2023/03/05 07:46:21;;;;;;;1.38;0.70;;;;;;;20.72;35.67;101800.03;5011861;28;20065;-72
2023/03/05 07:48:48;;;;;;;7.35;1.10;;;;;;;20.65;35.64;101798.94;5009707;28;20057;-73
2023/03/05 07:51:18;;;;;;;4.53;0.95;;;;;;;20.67;35.76;101801.50;5009644;28;20510;-71
2023/03/05 07:53:47;;;;;;;2.33;1.00;;;;;;;20.58;35.30;101801.41;4992093;28;20141;-71
2023/03/05 07:56:20;;;;;;;3.60;0.88;;;;;;;20.49;35.20;101796.84;5007300;28;20042;-71
2023/03/05 07:58:47;;;;;;;4.07;0.90;;;;;;;20.36;35.44;101799.03;5008383;28;20112;-71
2023/03/05 08:01:13;;;;;;;2.17;0.80;;;;;;;20.30;35.22;101795.03;5008205;28;20624;-71
2023/03/05 08:03:42;;;;;;;2.53;0.68;;;;;;;20.28;35.66;101796.19;5008322;28;20050;-71
2023/03/05 08:06:10;;;;;;;3.13;0.80;;;;;;;20.24;35.24;101795.63;5006756;28;20045;-71
2023/03/05 08:08:37;;;;;;;3.50;0.90;;;;;;;20.23;35.84;101788.44;5007075;28;20421;-71
2023/03/05 08:11:06;;;;;;;3.40;0.75;;;;;;;20.25;35.63;101786.44;5008113;28;20121;-70
2023/03/05 08:13:32;;;;;;;2.55;0.80;;;;;;;20.29;35.70;101779.66;5008521;28;20100;-71
2023/03/05 08:16:03;;;;;;;1.75;0.70;;;;;;;20.33;35.42;101784.81;5012261;28;20041;-71
2023/03/05 08:18:30;;;;;;;2.75;0.80;;;;;;;20.34;35.55;101784.69;5017087;28;20441;-71
2023/03/05 08:20:56;;;;;;;2.53;1.13;;;;;;;20.35;35.52;101788.25;5009328;28;20046;-70
2023/03/05 08:23:23;;;;;;;1.75;0.63;;;;;;;20.30;35.28;101778.66;5009419;28;20406;-70
2023/03/05 08:25:49;;;;;;;1.27;0.60;;;;;;;20.30;35.36;101772.34;5009327;28;20048;-71
2023/03/05 08:28:18;;;;;;;1.52;0.60;;;;;;;20.35;35.60;101782.81;5009854;28;20509;-71
2023/03/05 08:30:46;;;;;;;2.17;0.70;;;;;;;20.32;35.54;101775.78;5013317;28;20104;-71
2023/03/05 08:33:14;;;;;;;3.67;0.80;;;;;;;20.32;35.56;101773.06;5012082;28;20050;-71
2023/03/05 08:35:40;;;;;;;1.67;0.45;;;;;;;20.27;35.87;101772.66;5013455;28;20417;-71
2023/03/05 08:38:07;;;;;;;2.47;0.75;;;;;;;20.24;35.54;101770.22;5013482;28;20473;-70
2023/03/05 08:40:33;;;;;;;1.63;0.60;;;;;;;20.26;35.34;101768.19;5013238;28;20065;-71
2023/03/05 08:43:00;;;;;;;2.03;0.47;;;;;;;20.29;35.17;101768.75;5013267;28;20421;-71
2023/03/05 08:45:27;;;;;;;1.55;0.50;;;;;;;20.28;35.08;101769.75;5012869;28;20069;-70
2023/03/05 08:47:56;;;;;;;1.48;0.80;;;;;;;20.41;35.12;101760.41;5012012;28;20419;-72
2023/03/05 08:50:23;;;;;;;1.73;0.80;;;;;;;20.53;35.05;101768.25;5011823;28;20046;-71
2023/03/05 08:52:49;;;;;;;2.45;0.65;;;;;;;20.52;34.87;101765.66;5012708;28;20038;-71
2023/03/05 08:55:16;;;;;;;1.77;0.80;;;;;;;20.54;35.03;101766.38;5012718;28;20034;-72
2023/03/05 08:57:43;;;;;;;1.08;0.63;;;;;;;20.54;35.03;101756.31;5012869;28;20575;-72
2023/03/05 09:00:11;;;;;;;1.27;0.45;;;;;;;20.54;34.95;101752.72;5011672;28;20617;-72
2023/03/05 09:02:38;;;;;;;1.30;0.40;;;;;;;20.46;34.79;101745.31;5013189;28;20391;-73
2023/03/05 09:05:05;;;;;;;2.05;0.73;;;;;;;20.45;35.06;101746.31;5025046;28;20042;-71
2023/03/05 09:07:32;;;;;;;1.27;0.50;;;;;;;20.46;35.18;101741.72;5012535;28;20057;-71
2023/03/05 09:09:58;;;;;;;1.70;0.70;;;;;;;20.45;35.03;101742.72;5012010;28;20078;-72
2023/03/05 09:12:25;;;;;;;2.55;0.63;;;;;;;20.48;35.04;101735.09;5013431;28;20455;-72
2023/03/05 09:14:53;;;;;;;2.28;0.60;;;;;;;20.42;34.92;101738.44;5011754;28;20045;-72
2023/03/05 09:17:20;;;;;;;1.08;0.55;;;;;;;20.38;35.24;101719.75;5012665;28;20069;-72
2023/03/05 09:19:47;;;;;;;2.47;0.50;;;;;;;20.45;35.15;101737.28;5011475;28;20057;-71
2023/03/05 09:22:14;;;;;;;1.02;0.40;;;;;;;20.44;35.30;101735.56;5011966;28;20061;-72
2023/03/05 09:24:42;;;;;;;1.08;0.60;;;;;;;20.45;34.85;101731.81;5012475;28;20083;-72
2023/03/05 09:27:08;;;;;;;1.88;0.88;;;;;;;20.43;34.99;101733.84;5012450;28;20077;-72
2023/03/05 09:29:35;;;;;;;2.40;0.50;;;;;;;20.41;35.45;101728.53;5012552;28;20718;-71
2023/03/05 09:32:01;;;;;;;1.50;0.50;;;;;;;20.40;35.59;101720.50;5011772;28;20506;-72
2023/03/05 09:34:28;;;;;;;2.03;0.50;;;;;;;20.37;34.96;101727.09;5011445;28;20552;-72
2023/03/05 09:36:55;;;;;;;1.42;0.43;;;;;;;20.42;34.83;101716.59;4994783;28;20510;-71
2023/03/05 09:39:21;;;;;;;0.60;0.40;;;;;;;20.44;35.23;101722.78;5011012;28;20079;-72
2023/03/05 09:42:06;;;;;;;0.88;0.50;;;;;;;20.41;34.90;101720.34;5011224;28;20038;-72
2023/03/05 09:44:55;;;;;;;1.27;0.50;;;;;;;20.45;35.24;101710.84;5012189;28;20540;-72
2023/03/05 09:48:03;;;;;;;1.05;0.50;;;;;;;20.46;35.23;101707.09;5010488;28;20049;-72
2023/03/05 09:50:47;;;;;;;1.95;0.40;;;;;;;20.40;35.07;101713.16;5003364;28;20061;-72
2023/03/05 09:53:13;;;;;;;0.93;0.43;;;;;;;20.38;35.39;101708.84;5011634;28;20037;-72
2023/03/05 09:56:03;;;;;;;0.85;0.40;;;;;;;20.39;35.12;101708.72;5011677;28;20092;-72
2023/03/05 09:58:55;;;;;;;1.35;0.40;;;;;;;20.44;35.23;101700.09;5017727;28;20054;-72
2023/03/05 10:01:30;;;;;;;1.58;0.70;;;;;;;20.47;35.28;101708.81;4997888;28;20465;-72
2023/03/05 10:04:17;;;;;;;2.70;0.43;;;;;;;20.50;34.75;101702.19;5011874;28;20054;-71
2023/03/05 10:07:15;;;;;;;1.42;0.57;;;;;;;20.54;35.31;101693.56;5011745;28;20116;-72
2023/03/05 10:09:48;;;;;;;1.23;0.75;;;;;;;20.58;34.69;101696.84;5010574;28;20103;-72
2023/03/05 10:12:41;;;;;;;1.75;0.40;;;;;;;20.54;35.00;101693.56;5011536;28;20071;-72
2023/03/05 10:15:30;;;;;;;0.60;0.30;;;;;;;20.57;34.93;101687.78;5010701;28;20053;-71
2023/03/05 10:18:15;;;;;;;1.77;0.52;;;;;;;20.53;35.22;101691.84;5011934;28;20045;-71
2023/03/05 10:20:49;;;;;;;0.80;0.40;;;;;;;20.50;34.71;101685.84;5013581;28;20057;-71
2023/03/05 10:23:30;;;;;;;1.58;0.52;;;;;;;20.50;35.25;101688.56;5020666;28;20108;-72
2023/03/05 10:26:09;;;;;;;1.25;0.57;;;;;;;20.49;34.88;101689.56;5010634;28;20100;-72
2023/03/05 10:28:51;;;;;;;1.42;0.43;;;;;;;20.47;35.20;101695.19;5011860;28;20050;-72
2023/03/05 10:31:27;;;;;;;1.70;0.47;;;;;;;20.42;34.94;101693.91;5010817;28;20046;-72
2023/03/05 10:34:11;;;;;;;2.00;0.50;;;;;;;20.41;34.94;101693.06;5009906;28;20064;-72
2023/03/05 10:36:58;;;;;;;0.90;0.47;;;;;;;20.37;35.27;101688.03;5010033;28;20077;-72
2023/03/05 10:39:48;;;;;;;1.42;0.60;;;;;;;20.38;35.28;101692.47;5009896;28;20057;-71
2023/03/05 10:42:32;;;;;;;0.80;0.40;;;;;;;20.40;35.12;101690.50;5010669;28;20506;-71
2023/03/05 10:45:05;;;;;;;1.20;0.32;;;;;;;20.37;34.84;101683.44;5010943;28;20037;-72
2023/03/05 10:47:44;;;;;;;0.63;0.40;;;;;;;20.39;34.88;101684.16;5011342;28;20418;-71
2023/03/05 10:50:36;;;;;;;0.60;0.30;;;;;;;20.42;34.79;101674.81;5010693;28;20034;-71
2023/03/05 10:53:18;;;;;;;1.00;0.50;;;;;;;20.43;34.87;101671.09;5007718;28;20069;-73
2023/03/05 10:55:44;;;;;;;0.88;0.40;;;;;;;20.41;35.21;101660.31;5011079;28;20049;-71
2023/03/05 10:58:13;;;;;;;1.00;0.30;;;;;;;20.40;34.79;101658.59;5011332;28;20042;-72
2023/03/05 11:01:17;;;;;;;0.77;0.25;;;;;;;20.38;34.99;101660.59;5010529;28;20054;-71
2023/03/05 11:03:45;;;;;;;0.90;0.40;;;;;;;20.49;35.02;101657.69;5012637;28;20057;-71
2023/03/05 11:06:13;;;;;;;0.70;0.43;;;;;;;20.50;34.78;101659.41;5023000;28;20061;-72
2023/03/05 11:08:40;;;;;;;1.05;0.40;;;;;;;20.52;34.95;101660.09;5016450;28;20472;-72
2023/03/05 11:11:17;;;;;;;0.50;0.40;;;;;;;20.53;34.93;101655.50;5010572;28;20050;-72
2023/03/05 11:13:54;;;;;;;1.30;0.50;;;;;;;20.59;34.68;101650.28;5009379;28;20112;-71
2023/03/05 11:16:23;;;;;;;1.23;0.40;;;;;;;20.67;34.71;101640.47;5008785;28;20041;-74
2023/03/05 11:18:52;;;;;;;0.90;0.32;;;;;;;20.82;35.16;101647.13;5008967;28;20041;-71
2023/03/05 11:21:26;;;;;;;2.47;0.40;;;;;;;20.72;34.82;101638.13;5017065;28;20518;-71
2023/03/05 11:24:25;;;;;;;0.98;0.32;;;;;;;20.68;35.16;101634.84;5016525;28;20045;-71
2023/03/05 11:26:54;;;;;;;2.80;0.60;;;;;;;20.69;35.09;101631.09;4998916;28;20046;-71
2023/03/05 11:29:26;;;;;;;0.85;0.35;;;;;;;20.71;35.42;101623.63;5016767;28;20041;-71
2023/03/05 11:31:53;;;;;;;1.48;0.45;;;;;;;20.81;35.48;101621.69;5008816;28;20049;-71
2023/03/05 11:34:25;;;;;;;1.92;0.77;;;;;;;20.83;35.02;101621.53;5008980;28;20052;-71